sensor_id;sensor_type;location;lat;lon;timestamp;temperature;humidity
20463;DHT22;10390;53.566;9.980;2024-02-14T00:01:06;25.70;1.00
20463;DHT22;10390;53.566;9.980;2024-02-14T00:03:34;25.70;1.00
20463;DHT22;10390;53.566;9.980;2024-02-14T00:06:00;25.70;1.00
20463;DHT22;10390;53.566;9.980;2024-02-14T00:08:26;25.60;1.00
20463;DHT22;10390;53.566;9.980;2024-02-14T00:10:51;25.70;1.00
20463;DHT22;10390;53.566;9.980;2024-02-14T00:13:17;25.60;1.00
20463;DHT22;10390;53.566;9.980;2024-02-14T00:15:46;25.70;1.00
20463;DHT22;10390;53.566;9.980;2024-02-14T00:18:12;25.70;1.00
20463;DHT22;10390;53.566;9.980;2024-02-14T00:20:37;25.70;1.00
20463;DHT22;10390;53.566;9.980;2024-02-14T00:23:04;25.70;1.00
20463;DHT22;10390;53.566;9.980;2024-02-14T00:25:30;25.70;1.00
20463;DHT22;10390;53.566;9.980;2024-02-14T00:27:55;25.70;1.00
20463;DHT22;10390;53.566;9.980;2024-02-14T00:30:21;25.70;1.00
20463;DHT22;10390;53.566;9.980;2024-02-14T00:32:48;25.70;1.00
20463;DHT22;10390;53.566;9.980;2024-02-14T00:35:14;25.70;1.00
20463;DHT22;10390;53.566;9.980;2024-02-14T00:37:39;25.70;1.00
20463;DHT22;10390;53.566;9.980;2024-02-14T00:40:06;25.70;1.00
20463;DHT22;10390;53.566;9.980;2024-02-14T00:42:31;25.70;1.00
20463;DHT22;10390;53.566;9.980;2024-02-14T00:44:57;25.70;1.00
20463;DHT22;10390;53.566;9.980;2024-02-14T00:47:23;25.70;1.00
20463;DHT22;10390;53.566;9.980;2024-02-14T00:49:48;25.80;1.00
20463;DHT22;10390;53.566;9.980;2024-02-14T00:52:14;25.80;1.00
20463;DHT22;10390;53.566;9.980;2024-02-14T00:54:39;25.70;1.00
20463;DHT22;10390;53.566;9.980;2024-02-14T00:57:05;25.70;1.00
20463;DHT22;10390;53.566;9.980;2024-02-14T00:59:30;25.80;1.00
20463;DHT22;10390;53.566;9.980;2024-02-14T01:01:56;25.70;1.00
20463;DHT22;10390;53.566;9.980;2024-02-14T01:04:22;25.80;1.00
20463;DHT22;10390;53.566;9.980;2024-02-14T01:06:47;25.80;1.00
20463;DHT22;10390;53.566;9.980;2024-02-14T01:09:15;25.80;1.00
20463;DHT22;10390;53.566;9.980;2024-02-14T01:11:40;25.70;1.00
20463;DHT22;10390;53.566;9.980;2024-02-14T01:14:06;25.80;1.00
20463;DHT22;10390;53.566;9.980;2024-02-14T01:16:31;25.80;1.00
20463;DHT22;10390;53.566;9.980;2024-02-14T01:18:57;25.70;1.00
20463;DHT22;10390;53.566;9.980;2024-02-14T01:21:22;25.70;1.00
20463;DHT22;10390;53.566;9.980;2024-02-14T01:23:48;25.70;1.00
20463;DHT22;10390;53.566;9.980;2024-02-14T01:26:14;25.80;1.00
20463;DHT22;10390;53.566;9.980;2024-02-14T01:28:40;25.70;1.00
20463;DHT22;10390;53.566;9.980;2024-02-14T01:31:05;25.70;1.00
20463;DHT22;10390;53.566;9.980;2024-02-14T01:33:31;25.70;1.00
20463;DHT22;10390;53.566;9.980;2024-02-14T01:35:56;25.70;1.00
20463;DHT22;10390;53.566;9.980;2024-02-14T01:38:23;25.70;1.00
20463;DHT22;10390;53.566;9.980;2024-02-14T01:40:48;25.70;1.00
20463;DHT22;10390;53.566;9.980;2024-02-14T01:43:14;25.70;1.00
20463;DHT22;10390;53.566;9.980;2024-02-14T01:45:40;25.70;1.00
20463;DHT22;10390;53.566;9.980;2024-02-14T01:48:07;25.70;1.00
20463;DHT22;10390;53.566;9.980;2024-02-14T01:50:34;25.70;1.00
20463;DHT22;10390;53.566;9.980;2024-02-14T01:53:00;25.70;1.00
20463;DHT22;10390;53.566;9.980;2024-02-14T01:55:28;25.70;1.00
20463;DHT22;10390;53.566;9.980;2024-02-14T01:57:54;25.70;1.00
20463;DHT22;10390;53.566;9.980;2024-02-14T02:00:20;25.70;1.00
20463;DHT22;10390;53.566;9.980;2024-02-14T02:02:46;25.70;1.00
20463;DHT22;10390;53.566;9.980;2024-02-14T02:05:14;25.70;1.00
20463;DHT22;10390;53.566;9.980;2024-02-14T02:07:41;25.70;1.00
20463;DHT22;10390;53.566;9.980;2024-02-14T02:10:12;25.70;1.00
20463;DHT22;10390;53.566;9.980;2024-02-14T02:12:37;25.70;1.00
20463;DHT22;10390;53.566;9.980;2024-02-14T02:15:07;25.70;1.00
20463;DHT22;10390;53.566;9.980;2024-02-14T02:17:36;25.70;1.00
20463;DHT22;10390;53.566;9.980;2024-02-14T02:20:02;25.70;1.00
20463;DHT22;10390;53.566;9.980;2024-02-14T02:22:28;25.70;1.00
20463;DHT22;10390;53.566;9.980;2024-02-14T02:24:57;25.70;1.00
20463;DHT22;10390;53.566;9.980;2024-02-14T02:27:24;25.70;1.00
20463;DHT22;10390;53.566;9.980;2024-02-14T02:29:49;25.70;1.00
20463;DHT22;10390;53.566;9.980;2024-02-14T02:32:15;25.70;1.00
20463;DHT22;10390;53.566;9.980;2024-02-14T02:34:41;25.70;1.00
20463;DHT22;10390;53.566;9.980;2024-02-14T02:37:08;25.70;1.00
20463;DHT22;10390;53.566;9.980;2024-02-14T02:39:34;25.70;1.00
20463;DHT22;10390;53.566;9.980;2024-02-14T02:42:04;25.80;1.00
20463;DHT22;10390;53.566;9.980;2024-02-14T02:44:30;25.70;1.00
20463;DHT22;10390;53.566;9.980;2024-02-14T02:46:56;25.70;1.00
20463;DHT22;10390;53.566;9.980;2024-02-14T02:49:22;25.70;1.00
20463;DHT22;10390;53.566;9.980;2024-02-14T02:51:47;25.70;1.00
20463;DHT22;10390;53.566;9.980;2024-02-14T02:54:13;25.70;1.00
20463;DHT22;10390;53.566;9.980;2024-02-14T02:56:39;25.70;1.00
20463;DHT22;10390;53.566;9.980;2024-02-14T02:59:06;25.70;1.00
20463;DHT22;10390;53.566;9.980;2024-02-14T03:01:37;25.70;1.00
20463;DHT22;10390;53.566;9.980;2024-02-14T03:04:03;25.70;1.00
20463;DHT22;10390;53.566;9.980;2024-02-14T03:06:30;25.80;1.00
20463;DHT22;10390;53.566;9.980;2024-02-14T03:08:56;25.80;1.00
20463;DHT22;10390;53.566;9.980;2024-02-14T03:11:22;25.80;1.00
20463;DHT22;10390;53.566;9.980;2024-02-14T03:13:48;25.80;1.00
20463;DHT22;10390;53.566;9.980;2024-02-14T03:16:14;25.70;1.00
20463;DHT22;10390;53.566;9.980;2024-02-14T03:18:40;25.70;1.00
20463;DHT22;10390;53.566;9.980;2024-02-14T03:21:06;25.70;1.00
20463;DHT22;10390;53.566;9.980;2024-02-14T03:23:32;25.80;1.00
20463;DHT22;10390;53.566;9.980;2024-02-14T03:25:57;25.70;1.00
20463;DHT22;10390;53.566;9.980;2024-02-14T03:28:23;25.70;1.00
20463;DHT22;10390;53.566;9.980;2024-02-14T03:30:50;25.80;1.00
20463;DHT22;10390;53.566;9.980;2024-02-14T03:33:16;25.70;1.00
20463;DHT22;10390;53.566;9.980;2024-02-14T03:35:41;25.70;1.00
20463;DHT22;10390;53.566;9.980;2024-02-14T03:38:07;25.70;1.00
20463;DHT22;10390;53.566;9.980;2024-02-14T03:40:36;25.70;1.00
20463;DHT22;10390;53.566;9.980;2024-02-14T03:43:04;25.70;1.00
20463;DHT22;10390;53.566;9.980;2024-02-14T03:45:29;25.70;1.00
20463;DHT22;10390;53.566;9.980;2024-02-14T03:47:55;25.70;1.00
20463;DHT22;10390;53.566;9.980;2024-02-14T03:50:22;25.70;1.00
20463;DHT22;10390;53.566;9.980;2024-02-14T03:52:48;25.70;1.00
20463;DHT22;10390;53.566;9.980;2024-02-14T03:55:14;25.70;1.00
20463;DHT22;10390;53.566;9.980;2024-02-14T03:57:40;25.70;1.00
20463;DHT22;10390;53.566;9.980;2024-02-14T04:00:06;25.70;1.00
20463;DHT22;10390;53.566;9.980;2024-02-14T04:02:35;25.70;1.00
20463;DHT22;10390;53.566;9.980;2024-02-14T04:05:01;25.70;1.00
20463;DHT22;10390;53.566;9.980;2024-02-14T04:07:28;25.70;1.00
20463;DHT22;10390;53.566;9.980;2024-02-14T04:09:54;25.70;1.00
20463;DHT22;10390;53.566;9.980;2024-02-14T04:12:20;25.70;1.00
20463;DHT22;10390;53.566;9.980;2024-02-14T04:14:46;25.70;1.00
20463;DHT22;10390;53.566;9.980;2024-02-14T04:17:11;25.70;1.00
20463;DHT22;10390;53.566;9.980;2024-02-14T04:19:38;25.70;1.00
20463;DHT22;10390;53.566;9.980;2024-02-14T04:22:03;25.70;1.00
20463;DHT22;10390;53.566;9.980;2024-02-14T04:24:29;25.70;1.00
20463;DHT22;10390;53.566;9.980;2024-02-14T04:26:55;25.70;1.00
20463;DHT22;10390;53.566;9.980;2024-02-14T04:29:22;25.70;1.00
20463;DHT22;10390;53.566;9.980;2024-02-14T04:31:48;25.70;1.00
20463;DHT22;10390;53.566;9.980;2024-02-14T04:34:14;25.70;1.00
20463;DHT22;10390;53.566;9.980;2024-02-14T04:36:40;25.70;1.00
20463;DHT22;10390;53.566;9.980;2024-02-14T04:39:06;25.70;1.00
20463;DHT22;10390;53.566;9.980;2024-02-14T04:41:32;25.80;1.00
20463;DHT22;10390;53.566;9.980;2024-02-14T04:44:05;25.80;1.00
20463;DHT22;10390;53.566;9.980;2024-02-14T04:46:34;25.80;1.00
20463;DHT22;10390;53.566;9.980;2024-02-14T04:49:01;25.70;1.00
20463;DHT22;10390;53.566;9.980;2024-02-14T04:51:29;25.70;1.00
20463;DHT22;10390;53.566;9.980;2024-02-14T04:53:55;25.70;1.00
20463;DHT22;10390;53.566;9.980;2024-02-14T04:56:24;25.80;1.00
20463;DHT22;10390;53.566;9.980;2024-02-14T04:58:52;25.70;1.00
20463;DHT22;10390;53.566;9.980;2024-02-14T05:01:18;25.70;1.00
20463;DHT22;10390;53.566;9.980;2024-02-14T05:03:43;25.80;1.00
20463;DHT22;10390;53.566;9.980;2024-02-14T05:06:09;25.80;1.00
20463;DHT22;10390;53.566;9.980;2024-02-14T05:08:35;25.70;1.00
20463;DHT22;10390;53.566;9.980;2024-02-14T05:11:00;25.70;1.00
20463;DHT22;10390;53.566;9.980;2024-02-14T05:13:26;25.70;1.00
20463;DHT22;10390;53.566;9.980;2024-02-14T05:15:51;25.70;1.00
20463;DHT22;10390;53.566;9.980;2024-02-14T05:18:17;25.80;1.00
20463;DHT22;10390;53.566;9.980;2024-02-14T05:20:42;25.70;1.00
20463;DHT22;10390;53.566;9.980;2024-02-14T05:23:08;25.70;1.00
20463;DHT22;10390;53.566;9.980;2024-02-14T05:25:34;25.70;1.00
20463;DHT22;10390;53.566;9.980;2024-02-14T05:28:00;25.80;1.00
20463;DHT22;10390;53.566;9.980;2024-02-14T05:30:26;25.80;1.00
20463;DHT22;10390;53.566;9.980;2024-02-14T05:32:52;25.70;1.00
20463;DHT22;10390;53.566;9.980;2024-02-14T05:35:18;25.70;1.00
20463;DHT22;10390;53.566;9.980;2024-02-14T05:37:43;25.70;1.00
20463;DHT22;10390;53.566;9.980;2024-02-14T05:40:09;25.70;1.00
20463;DHT22;10390;53.566;9.980;2024-02-14T05:42:36;25.70;1.00
20463;DHT22;10390;53.566;9.980;2024-02-14T05:45:01;25.70;1.00
20463;DHT22;10390;53.566;9.980;2024-02-14T05:47:28;25.70;1.00
20463;DHT22;10390;53.566;9.980;2024-02-14T05:49:55;25.70;1.00
20463;DHT22;10390;53.566;9.980;2024-02-14T05:52:21;25.70;1.00
20463;DHT22;10390;53.566;9.980;2024-02-14T05:54:47;25.70;1.00
20463;DHT22;10390;53.566;9.980;2024-02-14T05:57:13;25.70;1.00
20463;DHT22;10390;53.566;9.980;2024-02-14T05:59:38;25.70;1.00
20463;DHT22;10390;53.566;9.980;2024-02-14T06:02:04;25.70;1.00
20463;DHT22;10390;53.566;9.980;2024-02-14T06:04:31;25.70;1.00
20463;DHT22;10390;53.566;9.980;2024-02-14T06:06:57;25.80;1.00
20463;DHT22;10390;53.566;9.980;2024-02-14T06:09:22;25.80;1.00
20463;DHT22;10390;53.566;9.980;2024-02-14T06:11:48;25.80;1.00
20463;DHT22;10390;53.566;9.980;2024-02-14T06:14:14;25.80;1.00
20463;DHT22;10390;53.566;9.980;2024-02-14T06:16:40;25.80;1.00
20463;DHT22;10390;53.566;9.980;2024-02-14T06:19:05;25.80;1.00
20463;DHT22;10390;53.566;9.980;2024-02-14T06:21:31;25.80;1.00
20463;DHT22;10390;53.566;9.980;2024-02-14T06:23:58;25.80;1.00
20463;DHT22;10390;53.566;9.980;2024-02-14T06:26:24;25.80;1.00
20463;DHT22;10390;53.566;9.980;2024-02-14T06:28:50;25.80;1.00
20463;DHT22;10390;53.566;9.980;2024-02-14T06:31:22;25.80;1.00
20463;DHT22;10390;53.566;9.980;2024-02-14T06:33:48;25.80;1.00
20463;DHT22;10390;53.566;9.980;2024-02-14T06:36:14;25.80;1.00
20463;DHT22;10390;53.566;9.980;2024-02-14T06:38:39;25.80;1.00
20463;DHT22;10390;53.566;9.980;2024-02-14T06:41:05;25.80;1.00
20463;DHT22;10390;53.566;9.980;2024-02-14T06:43:31;25.80;1.00
20463;DHT22;10390;53.566;9.980;2024-02-14T06:45:57;25.80;1.00
20463;DHT22;10390;53.566;9.980;2024-02-14T06:48:23;25.80;1.00
20463;DHT22;10390;53.566;9.980;2024-02-14T06:50:50;25.80;1.00
20463;DHT22;10390;53.566;9.980;2024-02-14T06:53:17;25.80;1.00
20463;DHT22;10390;53.566;9.980;2024-02-14T06:55:43;25.70;1.00
20463;DHT22;10390;53.566;9.980;2024-02-14T06:58:08;25.80;1.00
20463;DHT22;10390;53.566;9.980;2024-02-14T07:00:34;25.80;1.00
20463;DHT22;10390;53.566;9.980;2024-02-14T07:02:59;25.70;1.00
20463;DHT22;10390;53.566;9.980;2024-02-14T07:05:26;25.80;1.00
20463;DHT22;10390;53.566;9.980;2024-02-14T07:07:54;25.80;1.00
20463;DHT22;10390;53.566;9.980;2024-02-14T07:10:20;25.80;1.00
20463;DHT22;10390;53.566;9.980;2024-02-14T07:12:46;25.70;1.00
20463;DHT22;10390;53.566;9.980;2024-02-14T07:15:11;25.80;1.00
20463;DHT22;10390;53.566;9.980;2024-02-14T07:17:37;25.70;1.00
20463;DHT22;10390;53.566;9.980;2024-02-14T07:20:04;25.80;1.00
20463;DHT22;10390;53.566;9.980;2024-02-14T07:22:30;25.80;1.00
20463;DHT22;10390;53.566;9.980;2024-02-14T07:24:56;25.80;1.00
20463;DHT22;10390;53.566;9.980;2024-02-14T07:27:22;25.80;1.00
20463;DHT22;10390;53.566;9.980;2024-02-14T07:29:49;25.80;1.00
20463;DHT22;10390;53.566;9.980;2024-02-14T07:32:14;25.80;1.00
20463;DHT22;10390;53.566;9.980;2024-02-14T07:34:41;25.80;1.00
20463;DHT22;10390;53.566;9.980;2024-02-14T07:37:07;25.80;1.00
20463;DHT22;10390;53.566;9.980;2024-02-14T07:39:32;25.80;1.00
20463;DHT22;10390;53.566;9.980;2024-02-14T07:42:03;25.80;1.00
20463;DHT22;10390;53.566;9.980;2024-02-14T07:44:28;25.80;1.00
20463;DHT22;10390;53.566;9.980;2024-02-14T07:46:54;25.80;1.00
20463;DHT22;10390;53.566;9.980;2024-02-14T07:49:20;25.80;1.00
20463;DHT22;10390;53.566;9.980;2024-02-14T07:51:46;25.90;1.00
20463;DHT22;10390;53.566;9.980;2024-02-14T07:54:12;25.80;1.00
20463;DHT22;10390;53.566;9.980;2024-02-14T07:56:37;25.80;1.00
20463;DHT22;10390;53.566;9.980;2024-02-14T07:59:04;25.80;1.00
20463;DHT22;10390;53.566;9.980;2024-02-14T08:01:31;25.80;1.00
20463;DHT22;10390;53.566;9.980;2024-02-14T08:03:58;25.80;1.00
20463;DHT22;10390;53.566;9.980;2024-02-14T08:06:24;25.80;1.00
20463;DHT22;10390;53.566;9.980;2024-02-14T08:08:50;25.80;1.00
20463;DHT22;10390;53.566;9.980;2024-02-14T08:11:19;25.80;1.00
20463;DHT22;10390;53.566;9.980;2024-02-14T08:13:45;25.80;1.00
20463;DHT22;10390;53.566;9.980;2024-02-14T08:16:11;25.80;1.00
20463;DHT22;10390;53.566;9.980;2024-02-14T08:18:36;25.80;1.00
20463;DHT22;10390;53.566;9.980;2024-02-14T08:21:04;25.80;1.00
20463;DHT22;10390;53.566;9.980;2024-02-14T08:23:31;25.80;1.00
20463;DHT22;10390;53.566;9.980;2024-02-14T08:25:57;25.80;1.00
20463;DHT22;10390;53.566;9.980;2024-02-14T08:28:23;25.80;1.00
20463;DHT22;10390;53.566;9.980;2024-02-14T08:30:48;25.80;1.00
20463;DHT22;10390;53.566;9.980;2024-02-14T08:33:14;25.80;1.00
20463;DHT22;10390;53.566;9.980;2024-02-14T08:35:39;25.90;1.00
20463;DHT22;10390;53.566;9.980;2024-02-14T08:38:05;25.80;1.00
20463;DHT22;10390;53.566;9.980;2024-02-14T08:40:32;25.90;1.00
20463;DHT22;10390;53.566;9.980;2024-02-14T08:42:57;25.90;1.00
20463;DHT22;10390;53.566;9.980;2024-02-14T08:45:24;25.90;1.00
20463;DHT22;10390;53.566;9.980;2024-02-14T08:47:50;25.90;1.00
20463;DHT22;10390;53.566;9.980;2024-02-14T08:50:16;25.90;1.00
20463;DHT22;10390;53.566;9.980;2024-02-14T08:52:42;25.90;1.00
20463;DHT22;10390;53.566;9.980;2024-02-14T08:55:08;25.90;1.00
20463;DHT22;10390;53.566;9.980;2024-02-14T08:57:40;25.90;1.00
20463;DHT22;10390;53.566;9.980;2024-02-14T09:00:06;25.90;1.00
20463;DHT22;10390;53.566;9.980;2024-02-14T09:02:33;25.90;1.00
20463;DHT22;10390;53.566;9.980;2024-02-14T09:05:00;25.90;1.00
20463;DHT22;10390;53.566;9.980;2024-02-14T09:07:26;25.90;1.00
20463;DHT22;10390;53.566;9.980;2024-02-14T09:09:52;25.90;1.00
20463;DHT22;10390;53.566;9.980;2024-02-14T09:12:17;25.90;1.00
20463;DHT22;10390;53.566;9.980;2024-02-14T09:14:43;25.90;1.00
20463;DHT22;10390;53.566;9.980;2024-02-14T09:17:09;25.90;1.00
20463;DHT22;10390;53.566;9.980;2024-02-14T09:19:35;25.90;1.00
20463;DHT22;10390;53.566;9.980;2024-02-14T09:22:02;25.90;1.00
20463;DHT22;10390;53.566;9.980;2024-02-14T09:24:32;25.90;1.00
20463;DHT22;10390;53.566;9.980;2024-02-14T09:26:58;25.90;1.00
20463;DHT22;10390;53.566;9.980;2024-02-14T09:29:24;25.90;1.00
20463;DHT22;10390;53.566;9.980;2024-02-14T09:31:51;25.90;1.00
20463;DHT22;10390;53.566;9.980;2024-02-14T09:34:17;25.90;1.00
20463;DHT22;10390;53.566;9.980;2024-02-14T09:36:44;25.90;1.00
20463;DHT22;10390;53.566;9.980;2024-02-14T09:39:10;25.90;1.00
20463;DHT22;10390;53.566;9.980;2024-02-14T09:41:36;25.90;1.00
20463;DHT22;10390;53.566;9.980;2024-02-14T09:44:03;25.90;1.00
20463;DHT22;10390;53.566;9.980;2024-02-14T09:46:29;25.90;1.00
20463;DHT22;10390;53.566;9.980;2024-02-14T09:48:56;25.90;1.00
20463;DHT22;10390;53.566;9.980;2024-02-14T09:51:24;25.90;1.00
20463;DHT22;10390;53.566;9.980;2024-02-14T09:53:51;25.90;1.00
20463;DHT22;10390;53.566;9.980;2024-02-14T09:56:20;25.90;1.00
20463;DHT22;10390;53.566;9.980;2024-02-14T09:58:49;25.90;1.00
20463;DHT22;10390;53.566;9.980;2024-02-14T10:01:22;25.90;1.00
20463;DHT22;10390;53.566;9.980;2024-02-14T10:03:53;25.90;1.00
20463;DHT22;10390;53.566;9.980;2024-02-14T10:06:19;25.90;1.00
20463;DHT22;10390;53.566;9.980;2024-02-14T10:08:46;25.90;1.00
20463;DHT22;10390;53.566;9.980;2024-02-14T10:11:13;26.00;1.00
20463;DHT22;10390;53.566;9.980;2024-02-14T10:13:40;26.00;1.00
20463;DHT22;10390;53.566;9.980;2024-02-14T10:16:06;25.90;1.00
20463;DHT22;10390;53.566;9.980;2024-02-14T10:18:34;26.00;1.00
20463;DHT22;10390;53.566;9.980;2024-02-14T10:21:00;26.00;1.00
20463;DHT22;10390;53.566;9.980;2024-02-14T10:23:27;26.00;1.00
20463;DHT22;10390;53.566;9.980;2024-02-14T10:25:54;26.00;1.00
20463;DHT22;10390;53.566;9.980;2024-02-14T10:28:21;26.00;1.00
20463;DHT22;10390;53.566;9.980;2024-02-14T10:30:48;26.00;1.00
20463;DHT22;10390;53.566;9.980;2024-02-14T10:33:15;26.00;1.00
20463;DHT22;10390;53.566;9.980;2024-02-14T10:35:42;26.00;1.00
20463;DHT22;10390;53.566;9.980;2024-02-14T10:38:08;26.00;1.00
20463;DHT22;10390;53.566;9.980;2024-02-14T10:40:35;26.00;1.00
20463;DHT22;10390;53.566;9.980;2024-02-14T10:43:01;26.00;1.00
20463;DHT22;10390;53.566;9.980;2024-02-14T10:45:28;26.00;1.00
20463;DHT22;10390;53.566;9.980;2024-02-14T10:47:53;26.00;1.00
20463;DHT22;10390;53.566;9.980;2024-02-14T10:50:24;26.00;1.00
20463;DHT22;10390;53.566;9.980;2024-02-14T10:52:53;26.00;1.00
20463;DHT22;10390;53.566;9.980;2024-02-14T10:55:24;26.00;1.00
20463;DHT22;10390;53.566;9.980;2024-02-14T10:57:53;26.00;1.00
20463;DHT22;10390;53.566;9.980;2024-02-14T11:00:20;26.00;1.00
20463;DHT22;10390;53.566;9.980;2024-02-14T11:02:47;26.00;1.00
20463;DHT22;10390;53.566;9.980;2024-02-14T11:05:14;26.00;1.00
20463;DHT22;10390;53.566;9.980;2024-02-14T11:07:46;26.00;1.00
20463;DHT22;10390;53.566;9.980;2024-02-14T11:10:16;26.00;1.00
20463;DHT22;10390;53.566;9.980;2024-02-14T11:12:42;26.00;1.00
20463;DHT22;10390;53.566;9.980;2024-02-14T11:17:46;26.00;1.00
20463;DHT22;10390;53.566;9.980;2024-02-14T11:20:20;26.00;1.00
20463;DHT22;10390;53.566;9.980;2024-02-14T11:23:02;26.00;1.00
20463;DHT22;10390;53.566;9.980;2024-02-14T11:25:45;26.00;1.00
20463;DHT22;10390;53.566;9.980;2024-02-14T11:28:18;26.10;1.00
20463;DHT22;10390;53.566;9.980;2024-02-14T11:30:46;26.00;1.00
20463;DHT22;10390;53.566;9.980;2024-02-14T11:33:19;26.10;1.00
20463;DHT22;10390;53.566;9.980;2024-02-14T11:35:50;26.10;1.00
20463;DHT22;10390;53.566;9.980;2024-02-14T11:38:17;26.00;1.00
20463;DHT22;10390;53.566;9.980;2024-02-14T11:40:43;26.10;1.00
20463;DHT22;10390;53.566;9.980;2024-02-14T11:43:13;26.00;1.00
20463;DHT22;10390;53.566;9.980;2024-02-14T11:45:41;26.10;1.00
20463;DHT22;10390;53.566;9.980;2024-02-14T11:48:11;26.10;1.00
20463;DHT22;10390;53.566;9.980;2024-02-14T11:50:41;26.00;1.00
20463;DHT22;10390;53.566;9.980;2024-02-14T11:53:10;26.10;1.00
20463;DHT22;10390;53.566;9.980;2024-02-14T11:55:40;26.10;1.00
20463;DHT22;10390;53.566;9.980;2024-02-14T11:58:13;26.10;1.00
20463;DHT22;10390;53.566;9.980;2024-02-14T12:00:40;26.10;1.00
20463;DHT22;10390;53.566;9.980;2024-02-14T12:03:11;26.10;1.00
20463;DHT22;10390;53.566;9.980;2024-02-14T12:05:37;26.10;1.00
20463;DHT22;10390;53.566;9.980;2024-02-14T12:08:05;26.10;1.00
20463;DHT22;10390;53.566;9.980;2024-02-14T12:10:32;26.10;1.00
20463;DHT22;10390;53.566;9.980;2024-02-14T12:12:58;26.10;1.00
20463;DHT22;10390;53.566;9.980;2024-02-14T12:15:26;26.10;1.00
20463;DHT22;10390;53.566;9.980;2024-02-14T12:17:54;26.10;1.00
20463;DHT22;10390;53.566;9.980;2024-02-14T12:20:22;26.10;1.00
20463;DHT22;10390;53.566;9.980;2024-02-14T12:22:51;26.10;1.00
20463;DHT22;10390;53.566;9.980;2024-02-14T12:25:17;26.10;1.00
20463;DHT22;10390;53.566;9.980;2024-02-14T12:27:50;26.10;1.00
20463;DHT22;10390;53.566;9.980;2024-02-14T12:30:17;26.10;1.00
20463;DHT22;10390;53.566;9.980;2024-02-14T12:32:44;26.10;1.00
20463;DHT22;10390;53.566;9.980;2024-02-14T12:35:10;26.10;1.00
20463;DHT22;10390;53.566;9.980;2024-02-14T12:37:36;26.10;1.00
20463;DHT22;10390;53.566;9.980;2024-02-14T12:40:01;26.10;1.00
20463;DHT22;10390;53.566;9.980;2024-02-14T12:42:27;26.10;1.00
20463;DHT22;10390;53.566;9.980;2024-02-14T12:44:57;26.10;1.00
20463;DHT22;10390;53.566;9.980;2024-02-14T12:47:22;26.10;1.00
20463;DHT22;10390;53.566;9.980;2024-02-14T12:49:48;26.10;1.00
20463;DHT22;10390;53.566;9.980;2024-02-14T12:52:15;26.10;1.00
20463;DHT22;10390;53.566;9.980;2024-02-14T12:54:40;26.10;1.00
20463;DHT22;10390;53.566;9.980;2024-02-14T12:57:06;26.10;1.00
20463;DHT22;10390;53.566;9.980;2024-02-14T12:59:32;26.10;1.00
20463;DHT22;10390;53.566;9.980;2024-02-14T13:01:58;26.10;1.00
20463;DHT22;10390;53.566;9.980;2024-02-14T13:04:23;26.10;1.00
20463;DHT22;10390;53.566;9.980;2024-02-14T13:06:49;26.10;1.00
20463;DHT22;10390;53.566;9.980;2024-02-14T13:09:15;26.10;1.00
20463;DHT22;10390;53.566;9.980;2024-02-14T13:11:41;26.10;1.00
20463;DHT22;10390;53.566;9.980;2024-02-14T13:14:08;26.10;1.00
20463;DHT22;10390;53.566;9.980;2024-02-14T13:16:34;26.10;1.00
20463;DHT22;10390;53.566;9.980;2024-02-14T13:19:00;26.10;1.00
20463;DHT22;10390;53.566;9.980;2024-02-14T13:21:26;26.10;1.00
20463;DHT22;10390;53.566;9.980;2024-02-14T13:23:51;26.10;1.00
20463;DHT22;10390;53.566;9.980;2024-02-14T13:26:17;26.10;1.00
20463;DHT22;10390;53.566;9.980;2024-02-14T13:28:43;26.10;1.00
20463;DHT22;10390;53.566;9.980;2024-02-14T13:31:08;26.10;1.00
20463;DHT22;10390;53.566;9.980;2024-02-14T13:33:35;26.10;1.00
20463;DHT22;10390;53.566;9.980;2024-02-14T13:36:01;26.10;1.00
20463;DHT22;10390;53.566;9.980;2024-02-14T13:38:27;26.10;1.00
20463;DHT22;10390;53.566;9.980;2024-02-14T13:40:54;26.00;1.00
20463;DHT22;10390;53.566;9.980;2024-02-14T13:43:20;26.00;1.00
20463;DHT22;10390;53.566;9.980;2024-02-14T13:45:46;26.00;1.00
20463;DHT22;10390;53.566;9.980;2024-02-14T13:48:13;25.90;1.00
20463;DHT22;10390;53.566;9.980;2024-02-14T13:50:39;25.90;1.00
20463;DHT22;10390;53.566;9.980;2024-02-14T13:53:06;25.90;1.00
20463;DHT22;10390;53.566;9.980;2024-02-14T13:55:32;25.90;1.00
20463;DHT22;10390;53.566;9.980;2024-02-14T13:57:57;25.80;1.00
20463;DHT22;10390;53.566;9.980;2024-02-14T14:00:23;25.80;1.00
20463;DHT22;10390;53.566;9.980;2024-02-14T14:02:49;25.70;1.00
20463;DHT22;10390;53.566;9.980;2024-02-14T14:05:15;25.70;1.00
20463;DHT22;10390;53.566;9.980;2024-02-14T14:07:41;25.70;1.00
20463;DHT22;10390;53.566;9.980;2024-02-14T14:10:08;25.60;1.00
20463;DHT22;10390;53.566;9.980;2024-02-14T14:12:37;25.60;1.00
20463;DHT22;10390;53.566;9.980;2024-02-14T14:15:04;25.60;1.00
20463;DHT22;10390;53.566;9.980;2024-02-14T14:17:30;25.60;1.00
20463;DHT22;10390;53.566;9.980;2024-02-14T14:19:56;25.50;1.00
20463;DHT22;10390;53.566;9.980;2024-02-14T14:22:21;25.50;1.00
20463;DHT22;10390;53.566;9.980;2024-02-14T14:24:47;25.50;1.00
20463;DHT22;10390;53.566;9.980;2024-02-14T14:27:13;25.50;1.00
20463;DHT22;10390;53.566;9.980;2024-02-14T14:29:43;25.50;1.00
20463;DHT22;10390;53.566;9.980;2024-02-14T14:32:12;25.50;1.00
20463;DHT22;10390;53.566;9.980;2024-02-14T14:34:37;25.50;1.00
20463;DHT22;10390;53.566;9.980;2024-02-14T14:37:03;25.40;1.00
20463;DHT22;10390;53.566;9.980;2024-02-14T14:39:29;25.50;1.00
20463;DHT22;10390;53.566;9.980;2024-02-14T14:41:57;25.40;1.00
20463;DHT22;10390;53.566;9.980;2024-02-14T14:44:27;25.50;1.00
20463;DHT22;10390;53.566;9.980;2024-02-14T14:46:53;25.40;1.00
20463;DHT22;10390;53.566;9.980;2024-02-14T14:49:19;25.40;1.00
20463;DHT22;10390;53.566;9.980;2024-02-14T14:51:45;25.40;1.00
20463;DHT22;10390;53.566;9.980;2024-02-14T14:54:17;25.40;1.00
20463;DHT22;10390;53.566;9.980;2024-02-14T14:56:43;25.40;1.00
20463;DHT22;10390;53.566;9.980;2024-02-14T14:59:09;25.30;1.00
20463;DHT22;10390;53.566;9.980;2024-02-14T15:01:35;25.30;1.00
20463;DHT22;10390;53.566;9.980;2024-02-14T15:04:02;25.30;1.00
20463;DHT22;10390;53.566;9.980;2024-02-14T15:06:27;25.30;1.00
20463;DHT22;10390;53.566;9.980;2024-02-14T15:08:53;25.30;1.00
20463;DHT22;10390;53.566;9.980;2024-02-14T15:11:18;25.30;1.00
20463;DHT22;10390;53.566;9.980;2024-02-14T15:13:46;25.20;1.00
20463;DHT22;10390;53.566;9.980;2024-02-14T15:16:13;25.20;1.00
20463;DHT22;10390;53.566;9.980;2024-02-14T15:18:40;25.20;1.00
20463;DHT22;10390;53.566;9.980;2024-02-14T15:21:09;25.10;1.00
20463;DHT22;10390;53.566;9.980;2024-02-14T15:23:35;25.10;1.00
20463;DHT22;10390;53.566;9.980;2024-02-14T15:26:00;25.10;1.00
20463;DHT22;10390;53.566;9.980;2024-02-14T15:28:30;25.10;1.00
20463;DHT22;10390;53.566;9.980;2024-02-14T15:30:59;25.00;1.00
20463;DHT22;10390;53.566;9.980;2024-02-14T15:33:43;25.00;1.00
20463;DHT22;10390;53.566;9.980;2024-02-14T15:36:10;25.00;1.00
20463;DHT22;10390;53.566;9.980;2024-02-14T15:38:41;25.00;1.00
20463;DHT22;10390;53.566;9.980;2024-02-14T15:41:06;24.90;1.00
20463;DHT22;10390;53.566;9.980;2024-02-14T15:43:32;24.90;1.00